Cotonou, Benin
Current Conditions -  °F | °C
As of 10:00 PM on Monday 22 Dec 2014 (Local Time) from DBBB Reporting Station
Few Clouds Few Clouds  
Wind Chill: 82°   Ceiling: Unl
Heat Index: 94°   Visibility: 6mi
Dew Point: 81°   Wind: 7mph
Humidity: 94%   Direction: 190°S
Pressure: 29.85"   Gusts: NA
Location:  6.36°N, 2.44°E
Report Text: DBBB 222100Z 19006KT 9999 FEW011 28/27 Q1011 NOSIG
Loading
Personal Weather Stations






























Interactive Weather Map New forecast layout! Learn more

10-Day Weather Forecast

Advertisements
Track Severe Weather on mobile